< Typhoon 200619 2006 Season Typhoon 200621 >
Typhoon 200620 (CHEBI)
General InformationTrack Information on Google MapsDetailed Wind InformationList of All Images || Disaster Info.WeblogTrackbackTyphoon FrontResourceGoogle EarthGE AnimationAtom FeedGeoJSON
Detalied Best Track (Time Zone = UTC)
Year Month Day Hour Lat. Long. Pressure (hPa) Wind (kt) Class Image
2006 11 8 06 15.6 136.9 1008 0 2 Image
2006 11 8 12 15.6 135.5 1008 0 2 Image
2006 11 8 18 15.6 134.3 1008 0 2 Image
2006 11 9 00 15.8 132.7 1008 0 2 Image
2006 11 9 06 15.9 131.3 1006 0 2 Image
2006 11 9 12 15.9 130.1 1000 35 3 Image
2006 11 9 18 16.1 128.6 994 45 3 Image
2006 11 10 00 16.1 127.2 985 55 4 Image
2006 11 10 06 16.2 125.6 945 90 5 Image
2006 11 10 12 16.2 124.2 925 100 5 Image
2006 11 10 18 16.3 122.8 930 95 5 Image
2006 11 11 00 15.9 121.6 940 90 5 Image
2006 11 11 06 15.8 120.4 960 80 5 Image
2006 11 11 12 15.2 119.4 960 80 5 Image
2006 11 11 18 14.9 118.4 975 65 5 Image
2006 11 12 00 14.9 117.5 975 65 5 Image
2006 11 12 06 15.0 116.7 985 55 4 Image
2006 11 12 12 15.1 115.7 985 55 4 Image
2006 11 12 18 15.3 114.7 990 50 4 Image
2006 11 13 00 15.5 113.7 990 40 3 Image
2006 11 13 06 16.0 112.9 1000 35 3 Image
2006 11 13 12 16.3 112.3 1006 0 2 Image
2006 11 13 18 16.7 111.8 1008 0 2 Image
2006 11 14 00 17.0 111.5 1010 0 2 Image
2006 11 14 06 17.1 111.3 1010 0 2 Image
2006 11 14 12 17.1 111.1 1010 0 2 Image
2006 11 14 18 16.7 110.4 1012 0 2 Image
Japan Meteorological Agency Best Track Data | Correction Date : 2006-12-14
< Typhoon 200619 2006 Season Typhoon 200621 >

Help